createdAt,value
2023-02-23T00:01:42.542Z,10.30
2023-02-23T00:06:42.410Z,10.32
2023-02-23T00:11:42.433Z,9.91
2023-02-23T00:16:42.394Z,10.32
2023-02-23T00:21:45.469Z,10.84
2023-02-23T00:26:42.240Z,10.63
2023-02-23T00:31:42.259Z,11.01
2023-02-23T00:36:42.002Z,11.06
2023-02-23T00:41:42.009Z,11.02
2023-02-23T00:46:41.872Z,10.78
2023-02-23T00:51:41.931Z,10.62
2023-02-23T00:56:41.757Z,10.56
2023-02-23T01:01:42.048Z,10.88
2023-02-23T01:06:41.824Z,10.86
2023-02-23T01:11:42.269Z,10.73
2023-02-23T01:16:41.649Z,11.09
2023-02-23T01:21:52.469Z,11.20
2023-02-23T01:26:49.080Z,10.34
2023-02-23T01:31:49.485Z,10.62
2023-02-23T01:36:41.246Z,11.11
2023-02-23T01:41:41.239Z,11.10
2023-02-23T01:46:41.100Z,10.98
2023-02-23T01:51:41.152Z,11.02
2023-02-23T01:56:41.034Z,11.24
2023-02-23T02:01:41.001Z,10.94
2023-02-23T02:06:40.995Z,10.52
2023-02-23T02:11:40.934Z,10.28
2023-02-23T02:16:40.745Z,11.02
2023-02-23T02:21:43.675Z,11.25
2023-02-23T02:26:40.642Z,10.74
2023-02-23T02:31:40.734Z,10.86
2023-02-23T02:36:40.529Z,10.55
2023-02-23T02:41:41.204Z,10.86
2023-02-23T02:46:40.287Z,11.20
2023-02-23T02:51:40.297Z,10.91
2023-02-23T02:56:40.694Z,10.70
2023-02-23T03:01:40.317Z,10.74
2023-02-23T03:06:40.234Z,9.99
2023-02-23T03:11:40.076Z,9.81
2023-02-23T03:16:39.912Z,10.06
2023-02-23T03:21:43.426Z,10.09
2023-02-23T03:26:39.794Z,10.17
2023-02-23T03:31:39.957Z,10.39
2023-02-23T03:36:39.659Z,9.94
2023-02-23T03:41:39.655Z,9.34
2023-02-23T03:46:39.561Z,9.52
2023-02-23T03:51:40.167Z,10.07
2023-02-23T03:56:39.423Z,10.03
2023-02-23T04:01:39.461Z,10.59
2023-02-23T04:06:39.312Z,10.80
2023-02-23T04:11:39.340Z,10.78
2023-02-23T04:16:39.226Z,10.58
2023-02-23T04:21:42.116Z,10.59
2023-02-23T04:26:39.024Z,10.00
2023-02-23T04:31:39.405Z,10.36
2023-02-23T04:36:38.873Z,10.40
2023-02-23T04:41:38.832Z,10.89
2023-02-23T04:46:38.732Z,10.99
2023-02-23T04:51:38.860Z,10.65
2023-02-23T04:56:38.682Z,10.59
2023-02-23T05:01:38.887Z,10.60
2023-02-23T05:06:38.605Z,10.91
2023-02-23T05:11:38.474Z,11.01
2023-02-23T05:16:38.546Z,10.98
2023-02-23T05:21:41.306Z,10.74
2023-02-23T05:26:38.266Z,10.30
2023-02-23T05:31:38.525Z,10.80
2023-02-23T05:36:38.074Z,10.99
2023-02-23T05:41:38.453Z,10.68
2023-02-23T05:46:38.193Z,10.84
2023-02-23T05:51:37.957Z,10.26
2023-02-23T05:56:37.862Z,9.82
2023-02-23T06:01:37.804Z,9.73
2023-02-23T06:06:37.689Z,10.19
2023-02-23T06:11:38.097Z,10.73
2023-02-23T06:16:45.482Z,11.25
2023-02-23T06:21:48.222Z,11.36
2023-02-23T06:26:44.656Z,11.06
2023-02-23T06:31:44.915Z,11.02
2023-02-23T06:36:37.315Z,10.94
2023-02-23T06:41:37.254Z,11.03
2023-02-23T06:46:37.363Z,10.65
2023-02-23T06:51:37.153Z,10.07
2023-02-23T06:56:37.008Z,10.44
2023-02-23T07:01:37.130Z,10.09
2023-02-23T07:06:37.043Z,10.56
2023-02-23T07:11:36.959Z,10.32
2023-02-23T07:16:36.784Z,10.34
2023-02-23T07:21:39.741Z,10.65
2023-02-23T07:26:36.694Z,10.83
2023-02-23T07:31:36.678Z,10.88
2023-02-23T07:36:36.494Z,11.10
2023-02-23T07:41:36.650Z,11.47
2023-02-23T07:46:36.380Z,12.05
2023-02-23T07:51:36.369Z,12.12
2023-02-23T07:56:36.270Z,12.21
2023-02-23T08:01:36.254Z,12.48
2023-02-23T08:06:36.150Z,12.78
2023-02-23T08:11:36.117Z,13.04
2023-02-23T08:16:36.020Z,13.27
2023-02-23T08:21:39.036Z,13.47
2023-02-23T08:26:35.914Z,13.38
2023-02-23T08:31:36.162Z,13.81
2023-02-23T08:36:35.711Z,13.99
2023-02-23T08:41:35.684Z,13.89
2023-02-23T08:46:35.728Z,14.09
2023-02-23T08:51:35.566Z,14.42
2023-02-23T08:56:35.586Z,14.64
2023-02-23T09:01:35.535Z,14.95
2023-02-23T09:06:35.367Z,15.28
2023-02-23T09:11:35.446Z,15.61
2023-02-23T09:16:35.226Z,15.96
2023-02-23T09:21:38.345Z,16.18
2023-02-23T09:26:35.066Z,16.06
2023-02-23T09:31:35.181Z,16.56
2023-02-23T09:36:35.005Z,16.83
2023-02-23T09:41:34.941Z,16.95
2023-02-23T09:46:34.819Z,17.14
2023-02-23T09:51:34.781Z,17.18
2023-02-23T09:56:34.756Z,17.23
2023-02-23T10:01:34.699Z,17.28
2023-02-23T10:06:34.526Z,17.67
2023-02-23T10:11:36.356Z,17.84
2023-02-23T10:16:34.428Z,17.89
2023-02-23T10:21:37.428Z,18.21
2023-02-23T10:26:34.300Z,17.92
2023-02-23T10:31:34.467Z,18.37
2023-02-23T10:36:34.204Z,18.07
2023-02-23T10:41:34.163Z,17.70
2023-02-23T10:46:34.082Z,16.98
2023-02-23T10:51:34.015Z,16.04
2023-02-23T10:56:41.737Z,16.95
2023-02-23T11:01:49.097Z,16.59
2023-02-23T11:06:34.753Z,16.65
2023-02-23T11:11:33.646Z,16.53
2023-02-23T11:16:33.755Z,16.41
2023-02-23T11:21:36.734Z,16.52
2023-02-23T11:26:33.518Z,16.16
2023-02-23T11:31:33.465Z,16.23
2023-02-23T11:36:33.338Z,16.33
2023-02-23T11:41:33.297Z,15.78
2023-02-23T11:46:33.285Z,16.34
2023-02-23T11:51:33.203Z,16.22
2023-02-23T11:56:33.098Z,16.14
2023-02-23T12:01:33.071Z,15.76
2023-02-23T12:06:33.014Z,15.49
2023-02-23T12:11:32.908Z,16.44
2023-02-23T12:16:32.850Z,16.42
2023-02-23T12:21:35.821Z,16.75
2023-02-23T12:26:32.681Z,16.58
2023-02-23T12:31:32.681Z,16.09
2023-02-23T12:36:32.554Z,16.83
2023-02-23T12:41:32.499Z,16.31
2023-02-23T12:46:32.511Z,15.64
2023-02-23T12:51:32.371Z,15.96
2023-02-23T12:56:32.273Z,16.55
2023-02-23T13:01:32.316Z,16.85
2023-02-23T13:06:32.144Z,16.18
2023-02-23T13:11:32.230Z,16.48
2023-02-23T13:16:32.083Z,16.25
2023-02-23T13:21:34.980Z,16.45
2023-02-23T13:26:31.896Z,15.94
2023-02-23T13:31:31.992Z,16.25
2023-02-23T13:36:31.752Z,16.31
2023-02-23T13:41:31.747Z,16.34
2023-02-23T13:46:31.745Z,16.04
2023-02-23T13:51:32.021Z,15.70
2023-02-23T13:56:31.488Z,15.66
2023-02-23T14:01:31.604Z,15.88
2023-02-23T14:06:31.415Z,16.09
2023-02-23T14:11:31.422Z,15.96
2023-02-23T14:16:31.286Z,16.01
2023-02-23T14:21:34.288Z,15.94
2023-02-23T14:26:31.255Z,15.49
2023-02-23T14:31:31.358Z,16.01
2023-02-23T14:36:31.021Z,15.93
2023-02-23T14:41:31.090Z,15.82
2023-02-23T14:46:31.040Z,15.84
2023-02-23T14:51:31.170Z,15.84
2023-02-23T14:56:43.437Z,15.12
2023-02-23T15:01:31.931Z,15.46
2023-02-23T15:06:30.712Z,15.24
2023-02-23T15:11:30.604Z,14.61
2023-02-23T15:16:30.636Z,14.75
2023-02-23T15:21:34.639Z,14.75
2023-02-23T15:26:30.330Z,13.79
2023-02-23T15:31:37.795Z,14.62
2023-02-23T15:36:37.999Z,14.42
2023-02-23T15:41:37.326Z,14.68
2023-02-23T15:46:39.040Z,14.74
2023-02-23T15:51:30.066Z,14.50
2023-02-23T15:56:29.936Z,14.16
2023-02-23T16:01:30.045Z,14.06
2023-02-23T16:06:30.125Z,14.07
2023-02-23T16:11:29.827Z,14.25
2023-02-23T16:16:29.997Z,14.06
2023-02-23T16:21:32.886Z,14.17
2023-02-23T16:26:29.549Z,13.73
2023-02-23T16:31:29.789Z,13.73
2023-02-23T16:36:29.601Z,13.41
2023-02-23T16:41:29.350Z,13.43
2023-02-23T16:46:29.505Z,13.37
2023-02-23T16:51:29.245Z,13.03
2023-02-23T16:56:29.256Z,12.99
2023-02-23T17:01:29.105Z,12.71
2023-02-23T17:06:28.993Z,12.79
2023-02-23T17:11:28.961Z,12.64
2023-02-23T17:16:28.937Z,13.04
2023-02-23T17:21:31.920Z,13.38
2023-02-23T17:26:28.788Z,12.92
2023-02-23T17:31:29.389Z,12.81
2023-02-23T17:36:28.661Z,12.52
2023-02-23T17:41:28.677Z,13.04
2023-02-23T17:46:28.602Z,13.00
2023-02-23T17:51:28.602Z,12.74
2023-02-23T17:56:28.316Z,13.02
2023-02-23T18:01:28.364Z,13.03
2023-02-23T18:06:28.212Z,13.04
2023-02-23T18:11:28.276Z,13.21
2023-02-23T18:16:28.101Z,13.02
2023-02-23T18:21:31.086Z,12.69
2023-02-23T18:26:27.979Z,12.29
2023-02-23T18:31:28.071Z,12.63
2023-02-23T18:36:27.888Z,12.97
2023-02-23T18:41:27.885Z,12.82
2023-02-23T18:46:27.811Z,12.60
2023-02-23T18:51:27.670Z,12.64
2023-02-23T18:56:27.605Z,12.45
2023-02-23T19:01:27.829Z,12.38
2023-02-23T19:06:27.383Z,12.39
2023-02-23T19:11:27.356Z,12.39
2023-02-23T19:16:27.410Z,12.26
2023-02-23T19:21:30.497Z,12.30
2023-02-23T19:26:27.289Z,11.97
2023-02-23T19:31:27.247Z,12.11
2023-02-23T19:36:26.993Z,12.37
2023-02-23T19:41:26.957Z,12.70
2023-02-23T19:46:26.872Z,12.13
2023-02-23T19:51:26.861Z,12.41
2023-02-23T19:56:26.772Z,12.37
2023-02-23T20:01:26.738Z,12.09
2023-02-23T20:06:26.639Z,12.77
2023-02-23T20:11:26.720Z,12.82
2023-02-23T20:16:26.474Z,12.26
2023-02-23T20:21:29.639Z,12.21
2023-02-23T20:26:34.386Z,11.80
2023-02-23T20:31:33.809Z,12.11
2023-02-23T20:36:26.310Z,12.45
2023-02-23T20:41:26.139Z,12.12
2023-02-23T20:46:26.132Z,12.33
2023-02-23T20:51:26.143Z,12.38
2023-02-23T20:56:26.012Z,12.24
2023-02-23T21:01:26.477Z,12.15
2023-02-23T21:06:25.935Z,11.94
2023-02-23T21:11:25.741Z,11.93
2023-02-23T21:16:25.754Z,12.24
2023-02-23T21:21:28.950Z,12.37
2023-02-23T21:26:25.612Z,12.19
2023-02-23T21:31:25.779Z,11.86
2023-02-23T21:36:25.446Z,11.78
2023-02-23T21:41:25.435Z,11.94
2023-02-23T21:46:25.389Z,11.67
2023-02-23T21:51:25.297Z,11.62
2023-02-23T21:56:25.182Z,11.09
